Time;durP1;ratioP1;P1;durP2;ratioP2;P2;SDS_P1;SDS_P2;PMS_P1;PMS_P2;Temp;Humidity;BMP_temperature;BMP_pressure;BME280_temperature;BME280_humidity;BME280_pressure;Samples;Min_cycle;Max_cycle;Signal;HPM_P1;HPM_P2
2023/10/04 00:00:18;;;;;;;5.73;4.13;;;12.40;99.90;;;;;;4973921;28;20328;-71
2023/10/04 00:02:45;;;;;;;7.50;4.37;;;12.30;99.90;;;;;;4973759;28;20173;-71
2023/10/04 00:05:15;;;;;;;8.07;4.17;;;12.30;99.90;;;;;;4974103;28;20253;-72
2023/10/04 00:07:42;;;;;;;6.70;3.67;;;12.30;99.90;;;;;;4973354;28;20673;-72
2023/10/04 00:10:08;;;;;;;5.77;3.80;;;12.30;99.90;;;;;;4973900;28;20200;-71
2023/10/04 00:12:33;;;;;;;7.43;4.13;;;12.30;99.90;;;;;;4973294;28;20529;-73
2023/10/04 00:14:59;;;;;;;8.37;4.40;;;12.20;99.90;;;;;;4972382;28;20181;-72
2023/10/04 00:17:24;;;;;;;6.43;3.53;;;12.20;99.90;;;;;;4973521;28;20209;-71
2023/10/04 00:19:50;;;;;;;6.53;3.87;;;12.20;99.90;;;;;;4973409;28;20293;-71
2023/10/04 00:22:18;;;;;;;8.47;3.87;;;12.20;99.90;;;;;;4973542;28;20165;-73
2023/10/04 00:24:44;;;;;;;4.67;3.67;;;12.20;99.90;;;;;;4972983;28;20209;-71
2023/10/04 00:27:10;;;;;;;8.60;4.43;;;12.20;99.90;;;;;;4973599;28;20634;-70
2023/10/04 00:29:36;;;;;;;6.50;4.07;;;12.20;99.90;;;;;;4973705;28;20268;-71
2023/10/04 00:32:04;;;;;;;7.07;3.77;;;12.20;99.90;;;;;;4973163;28;20185;-71
2023/10/04 00:34:30;;;;;;;10.10;3.83;;;12.30;99.90;;;;;;4973464;28;20538;-71
2023/10/04 00:36:56;;;;;;;7.73;4.43;;;12.30;99.90;;;;;;4972992;28;20208;-71
2023/10/04 00:39:22;;;;;;;9.00;4.53;;;12.30;99.90;;;;;;4972925;28;20735;-70
2023/10/04 00:41:50;;;;;;;5.73;4.03;;;12.30;99.90;;;;;;4972704;28;20248;-71
2023/10/04 00:44:16;;;;;;;10.23;4.00;;;12.30;99.90;;;;;;4973376;28;20166;-71
2023/10/04 00:46:45;;;;;;;7.93;3.83;;;12.40;99.90;;;;;;4973024;28;20699;-71
2023/10/04 00:49:12;;;;;;;12.03;4.67;;;12.30;99.90;;;;;;4973163;28;20193;-71
2023/10/04 00:51:38;;;;;;;7.27;4.47;;;12.40;99.90;;;;;;4972643;28;20173;-72
2023/10/04 00:54:10;;;;;;;5.27;3.57;;;12.40;99.90;;;;;;4971292;28;20205;-73
2023/10/04 00:56:36;;;;;;;8.30;4.23;;;12.40;99.90;;;;;;4972746;28;20197;-72
2023/10/04 00:59:05;;;;;;;8.17;3.90;;;12.40;99.90;;;;;;4972844;28;20189;-71
2023/10/04 01:01:33;;;;;;;6.53;4.00;;;12.40;99.90;;;;;;4972983;28;20170;-71
2023/10/04 01:04:02;;;;;;;10.47;4.10;;;12.40;99.90;;;;;;4972893;28;20260;-73
2023/10/04 01:06:30;;;;;;;6.20;4.43;;;12.40;99.90;;;;;;4973039;28;20252;-71
2023/10/04 01:08:56;;;;;;;8.07;4.30;;;12.40;99.90;;;;;;4972369;28;20200;-72
2023/10/04 01:11:22;;;;;;;9.10;3.87;;;12.40;99.90;;;;;;4972827;28;20184;-72
2023/10/04 01:13:48;;;;;;;4.67;3.90;;;12.30;99.90;;;;;;4972516;28;20629;-72
2023/10/04 01:16:23;;;;;;;11.47;4.13;;;12.30;99.90;;;;;;4971467;28;20177;-74
2023/10/04 01:18:49;;;;;;;7.33;4.50;;;12.30;99.90;;;;;;4972655;28;20170;-73
2023/10/04 01:21:17;;;;;;;12.27;4.13;;;12.30;99.90;;;;;;4972649;28;20201;-72
2023/10/04 01:23:45;;;;;;;10.07;4.10;;;12.30;99.90;;;;;;4972093;28;20174;-73
2023/10/04 01:26:25;;;;;;;9.17;4.67;;;12.30;99.90;;;;;;4972672;28;20308;-72
2023/10/04 01:28:51;;;;;;;7.93;3.70;;;12.30;99.90;;;;;;4972253;28;20169;-73
2023/10/04 01:31:17;;;;;;;9.10;4.40;;;12.30;99.90;;;;;;4972291;28;20276;-73
2023/10/04 01:33:42;;;;;;;9.20;4.17;;;12.30;99.90;;;;;;4972470;28;20324;-73
2023/10/04 01:36:08;;;;;;;10.73;4.27;;;12.30;99.90;;;;;;4971951;28;20181;-72
2023/10/04 01:38:35;;;;;;;5.67;4.13;;;12.30;99.90;;;;;;4972637;28;20176;-72
2023/10/04 01:41:00;;;;;;;6.33;3.97;;;12.30;99.90;;;;;;4972543;28;20649;-73
2023/10/04 01:43:27;;;;;;;9.50;4.13;;;12.30;99.90;;;;;;4972487;28;20172;-72
2023/10/04 01:45:57;;;;;;;5.77;3.93;;;12.30;99.90;;;;;;4971992;28;20534;-74
2023/10/04 01:48:22;;;;;;;13.57;4.30;;;12.30;99.90;;;;;;4972552;28;20220;-72
2023/10/04 01:50:51;;;;;;;7.00;4.30;;;12.20;99.90;;;;;;4972341;28;20185;-72
2023/10/04 01:53:22;;;;;;;5.40;3.90;;;12.30;99.90;;;;;;4972324;28;20177;-73
2023/10/04 01:55:48;;;;;;;10.60;3.90;;;12.30;99.90;;;;;;4972345;28;20424;-73
2023/10/04 01:58:15;;;;;;;6.73;3.70;;;12.30;99.90;;;;;;4972571;28;20382;-72
2023/10/04 02:00:42;;;;;;;12.07;4.10;;;12.30;99.90;;;;;;4971046;28;20196;-71
2023/10/04 02:03:10;;;;;;;7.07;4.23;;;12.20;99.90;;;;;;4972222;28;20170;-72
2023/10/04 02:05:40;;;;;;;9.47;4.00;;;12.30;99.90;;;;;;4972633;28;20202;-73
2023/10/04 02:08:08;;;;;;;8.07;4.53;;;12.30;99.90;;;;;;4972031;28;20636;-73
2023/10/04 02:10:34;;;;;;;8.53;4.03;;;12.30;99.90;;;;;;4972637;28;20221;-73
2023/10/04 02:13:00;;;;;;;13.10;4.27;;;12.20;99.90;;;;;;4971689;28;20173;-71
2023/10/04 02:15:26;;;;;;;7.07;4.27;;;12.20;99.90;;;;;;4972472;28;20843;-72
2023/10/04 02:17:53;;;;;;;7.83;4.00;;;12.30;99.90;;;;;;4971993;28;20193;-71
2023/10/04 02:20:24;;;;;;;8.60;4.10;;;12.30;99.90;;;;;;4972405;28;20200;-72
2023/10/04 02:22:54;;;;;;;6.63;3.73;;;12.30;99.90;;;;;;4972093;28;20260;-73
2023/10/04 02:25:20;;;;;;;7.30;3.67;;;12.30;99.90;;;;;;4972503;28;20524;-71
2023/10/04 02:27:47;;;;;;;4.87;3.60;;;12.30;99.90;;;;;;4971190;28;20189;-73
2023/10/04 02:30:19;;;;;;;7.63;4.17;;;12.30;99.90;;;;;;4971971;28;20197;-73
2023/10/04 02:32:44;;;;;;;7.07;4.00;;;12.30;99.90;;;;;;4975120;28;20173;-72
2023/10/04 02:37:54;;;;;;;10.57;3.90;;;12.30;99.90;;;;;;4975445;28;20197;-72
2023/10/04 02:40:21;;;;;;;10.07;4.43;;;12.30;99.90;;;;;;4975746;28;20189;-73
2023/10/04 02:42:48;;;;;;;6.00;3.83;;;12.30;99.90;;;;;;4974860;28;20565;-73
2023/10/04 02:45:18;;;;;;;7.90;4.27;;;12.30;99.90;;;;;;4975570;28;20174;-72
2023/10/04 02:47:49;;;;;;;5.97;3.57;;;12.30;99.90;;;;;;4974842;28;20743;-73
2023/10/04 02:50:17;;;;;;;6.93;4.60;;;12.30;99.90;;;;;;4974033;28;20232;-72
2023/10/04 02:52:44;;;;;;;9.07;3.63;;;12.30;99.90;;;;;;4975036;28;20177;-73
2023/10/04 02:55:15;;;;;;;7.80;4.40;;;12.30;99.90;;;;;;4975548;28;20169;-73
2023/10/04 02:57:42;;;;;;;4.20;3.80;;;12.40;99.90;;;;;;4974692;28;20284;-73
2023/10/04 03:00:12;;;;;;;7.50;3.97;;;12.40;99.90;;;;;;4974831;28;20630;-73
2023/10/04 03:02:38;;;;;;;5.70;3.57;;;12.40;99.90;;;;;;4975063;28;20201;-72
2023/10/04 03:05:08;;;;;;;4.73;3.60;;;12.50;99.90;;;;;;4975250;28;20205;-72
2023/10/04 03:07:33;;;;;;;8.07;3.57;;;12.50;99.90;;;;;;4974917;28;20200;-72
2023/10/04 03:09:59;;;;;;;8.17;3.93;;;12.50;99.90;;;;;;4974687;28;20520;-73
2023/10/04 03:12:24;;;;;;;7.50;4.33;;;12.50;99.90;;;;;;4973419;28;20185;-73
2023/10/04 03:14:50;;;;;;;6.00;3.40;;;12.50;99.90;;;;;;4975024;28;20712;-71
2023/10/04 03:17:16;;;;;;;8.80;4.00;;;12.50;99.90;;;;;;4973731;28;20206;-73
2023/10/04 03:19:43;;;;;;;9.57;4.23;;;12.50;99.90;;;;;;4974934;28;20260;-73
2023/10/04 03:22:10;;;;;;;3.80;3.47;;;12.50;99.90;;;;;;4974646;28;20568;-72
2023/10/04 03:24:36;;;;;;;5.27;3.50;;;12.50;99.90;;;;;;4974589;28;20173;-72
2023/10/04 03:27:05;;;;;;;5.67;4.10;;;12.50;99.90;;;;;;4974601;28;20264;-72
2023/10/04 03:29:31;;;;;;;10.60;4.10;;;12.50;99.90;;;;;;4974360;28;20261;-72
2023/10/04 03:31:56;;;;;;;4.33;3.40;;;12.50;99.90;;;;;;4974191;28;20645;-72
2023/10/04 03:34:25;;;;;;;6.50;3.30;;;12.50;99.90;;;;;;4974780;28;20615;-73
2023/10/04 03:36:51;;;;;;;8.97;4.07;;;12.50;99.90;;;;;;4974477;28;20635;-72
2023/10/04 03:39:16;;;;;;;7.13;4.07;;;12.50;99.90;;;;;;4974582;28;20272;-72
2023/10/04 03:41:42;;;;;;;5.03;3.80;;;12.50;99.90;;;;;;4972967;28;20316;-73
2023/10/04 03:44:09;;;;;;;8.60;3.80;;;12.50;99.90;;;;;;4973477;28;20169;-73
2023/10/04 03:46:34;;;;;;;6.33;3.93;;;12.50;99.90;;;;;;4974412;28;20244;-72
2023/10/04 03:49:02;;;;;;;7.00;4.00;;;12.40;99.90;;;;;;4974169;28;20264;-71
2023/10/04 03:51:28;;;;;;;9.53;4.93;;;12.40;99.90;;;;;;4974292;28;20169;-72
2023/10/04 03:53:54;;;;;;;8.67;4.57;;;12.40;99.90;;;;;;4973973;28;20642;-72
2023/10/04 03:56:22;;;;;;;6.07;4.00;;;12.40;99.90;;;;;;4973983;28;20181;-72
2023/10/04 03:58:48;;;;;;;9.47;3.53;;;12.40;99.90;;;;;;4974189;28;20177;-72
2023/10/04 04:01:14;;;;;;;9.77;4.17;;;12.30;99.90;;;;;;4973993;28;20197;-73
2023/10/04 04:03:40;;;;;;;9.57;4.33;;;12.30;99.90;;;;;;4973045;28;20181;-72
2023/10/04 04:06:06;;;;;;;5.57;3.87;;;12.30;99.90;;;;;;4973938;28;20173;-72
2023/10/04 04:08:32;;;;;;;7.03;4.23;;;12.30;99.90;;;;;;4974397;28;20209;-73
2023/10/04 04:10:58;;;;;;;6.97;3.67;;;12.30;99.90;;;;;;4973739;28;20201;-73
2023/10/04 04:13:24;;;;;;;9.10;4.47;;;12.20;99.90;;;;;;4973928;28;20561;-72
2023/10/04 04:15:51;;;;;;;5.03;4.07;;;12.20;99.90;;;;;;4973801;28;20200;-73
2023/10/04 04:18:20;;;;;;;7.83;3.97;;;12.20;99.90;;;;;;4971918;28;20209;-73
2023/10/04 04:20:49;;;;;;;9.00;4.27;;;12.10;99.90;;;;;;4973170;28;20193;-72
2023/10/04 04:23:15;;;;;;;4.93;4.00;;;12.10;99.90;;;;;;4973118;28;20195;-72
2023/10/04 04:25:43;;;;;;;10.17;4.40;;;12.10;99.90;;;;;;4973652;28;20178;-73
2023/10/04 04:28:12;;;;;;;7.70;4.60;;;12.00;99.90;;;;;;4973520;28;20669;-72
2023/10/04 04:30:38;;;;;;;10.30;4.50;;;12.00;99.90;;;;;;4973572;28;20621;-73
2023/10/04 04:33:07;;;;;;;8.10;4.60;;;12.00;99.90;;;;;;4971997;28;20185;-72
2023/10/04 04:38:40;;;;;;;7.87;4.23;;;11.90;99.90;;;;;;4972541;28;20227;-73
2023/10/04 04:41:04;;;;;;;8.47;4.33;;;11.90;99.90;;;;;;4971925;28;20292;-74
2023/10/04 04:43:38;;;;;;;12.23;4.07;;;11.80;99.90;;;;;;4972096;28;20181;-73
2023/10/04 04:46:13;;;;;;;5.03;3.40;;;11.80;99.90;;;;;;4973017;28;20185;-73
2023/10/04 04:48:39;;;;;;;9.57;4.37;;;11.80;99.90;;;;;;4972978;28;20587;-73
2023/10/04 04:51:11;;;;;;;9.27;4.03;;;11.70;99.90;;;;;;4972739;28;20320;-73
2023/10/04 04:53:46;;;;;;;11.63;4.30;;;11.70;99.90;;;;;;4968089;28;20200;-72
2023/10/04 04:56:13;;;;;;;10.53;4.77;;;11.60;99.90;;;;;;4972880;28;20181;-72
2023/10/04 04:58:44;;;;;;;8.57;4.47;;;11.60;99.90;;;;;;4973225;28;20166;-71
2023/10/04 05:01:13;;;;;;;6.13;4.53;;;11.60;99.90;;;;;;4973041;28;20185;-72
2023/10/04 05:03:42;;;;;;;6.63;4.50;;;11.60;99.90;;;;;;4972012;28;20612;-71
2023/10/04 05:06:16;;;;;;;5.57;4.20;;;11.60;99.90;;;;;;4971743;28;20731;-73
2023/10/04 05:08:42;;;;;;;9.90;4.40;;;11.50;99.90;;;;;;4972709;28;20200;-71
2023/10/04 05:11:09;;;;;;;9.60;4.43;;;11.50;99.90;;;;;;4972903;28;20205;-71
2023/10/04 05:13:36;;;;;;;9.53;4.60;;;11.50;99.90;;;;;;4972884;28;20169;-72
2023/10/04 05:16:02;;;;;;;8.00;4.40;;;11.50;99.90;;;;;;4972733;28;20200;-71
2023/10/04 05:18:28;;;;;;;9.87;4.37;;;11.50;99.90;;;;;;4972380;28;20197;-73
2023/10/04 05:20:54;;;;;;;11.87;4.73;;;11.40;99.90;;;;;;4972704;28;20201;-73
2023/10/04 05:23:24;;;;;;;9.67;4.73;;;11.40;99.90;;;;;;4972977;28;20645;-73
2023/10/04 05:25:51;;;;;;;15.47;4.33;;;11.40;99.90;;;;;;4972688;28;20178;-73
2023/10/04 05:28:17;;;;;;;8.47;4.50;;;11.40;99.90;;;;;;4972552;28;20219;-72
2023/10/04 05:30:45;;;;;;;7.90;4.10;;;11.40;99.90;;;;;;4972388;28;20201;-72
2023/10/04 05:33:13;;;;;;;6.60;4.27;;;11.40;99.90;;;;;;4972018;28;20177;-73
2023/10/04 05:35:52;;;;;;;6.93;3.87;;;11.40;99.90;;;;;;4972346;28;20256;-72
2023/10/04 05:38:18;;;;;;;7.10;4.33;;;11.30;99.90;;;;;;4972003;28;20201;-73
2023/10/04 05:40:46;;;;;;;7.53;4.10;;;11.30;99.90;;;;;;4971079;28;20584;-73
2023/10/04 05:43:13;;;;;;;13.07;4.83;;;11.30;99.90;;;;;;4971944;28;20177;-73
2023/10/04 05:45:42;;;;;;;9.17;4.00;;;11.30;99.90;;;;;;4971705;28;20208;-73
2023/10/04 05:48:11;;;;;;;12.07;4.50;;;11.30;99.90;;;;;;4972292;28;20173;-73
2023/10/04 05:50:38;;;;;;;9.33;4.47;;;11.30;99.90;;;;;;4972343;28;20197;-73
2023/10/04 05:53:06;;;;;;;7.63;4.13;;;11.30;99.90;;;;;;4972102;28;20173;-73
2023/10/04 05:55:37;;;;;;;8.40;4.70;;;11.30;99.90;;;;;;4972338;28;20178;-73
2023/10/04 05:58:13;;;;;;;6.63;4.87;;;11.30;99.90;;;;;;4972069;28;20212;-73
2023/10/04 06:00:42;;;;;;;11.17;4.67;;;11.30;99.90;;;;;;4972492;28;20208;-73
2023/10/04 06:03:11;;;;;;;16.83;5.30;;;11.30;99.90;;;;;;4970375;28;20184;-73
2023/10/04 06:05:38;;;;;;;14.97;5.33;;;11.40;99.90;;;;;;4972897;28;20213;-73
2023/10/04 06:08:12;;;;;;;13.10;5.40;;;11.40;99.90;;;;;;4975694;28;20177;-72
2023/10/04 06:10:38;;;;;;;10.20;5.23;;;11.40;99.90;;;;;;4975418;28;20193;-71
2023/10/04 06:13:11;;;;;;;8.97;5.10;;;11.50;99.90;;;;;;4975673;28;20308;-72
2023/10/04 06:15:41;;;;;;;7.47;4.10;;;11.50;99.90;;;;;;4974593;28;20551;-73
2023/10/04 06:18:08;;;;;;;9.77;4.60;;;11.50;99.90;;;;;;4975442;28;20577;-74
2023/10/04 06:20:36;;;;;;;12.30;5.50;;;11.60;99.90;;;;;;4975668;28;20204;-73
2023/10/04 06:23:07;;;;;;;12.87;4.63;;;11.60;99.90;;;;;;4975245;28;20436;-73
2023/10/04 06:25:34;;;;;;;10.53;4.67;;;11.70;99.90;;;;;;4975704;28;20196;-72
2023/10/04 06:28:02;;;;;;;10.53;4.60;;;11.80;99.90;;;;;;4975424;28;20180;-72
2023/10/04 06:30:31;;;;;;;8.37;4.23;;;11.80;99.90;;;;;;4975512;28;20189;-72
2023/10/04 06:33:01;;;;;;;10.50;4.43;;;11.90;99.90;;;;;;4975131;28;20209;-72
2023/10/04 06:35:28;;;;;;;8.73;4.57;;;12.00;99.90;;;;;;4975111;28;20177;-71
2023/10/04 06:38:07;;;;;;;8.30;4.53;;;12.00;99.90;;;;;;4974936;28;20205;-72
2023/10/04 06:40:34;;;;;;;6.57;4.10;;;12.00;99.90;;;;;;4964913;28;20208;-72
2023/10/04 06:43:04;;;;;;;10.07;4.30;;;12.10;99.90;;;;;;4974893;28;20176;-71
2023/10/04 06:45:30;;;;;;;8.23;4.37;;;12.20;99.90;;;;;;4975297;28;20180;-72
2023/10/04 06:47:58;;;;;;;8.90;4.20;;;12.30;99.90;;;;;;4974408;28;20247;-72
2023/10/04 06:50:32;;;;;;;13.30;4.70;;;12.40;99.90;;;;;;4975061;28;20705;-71
2023/10/04 06:52:58;;;;;;;5.73;3.53;;;12.70;99.90;;;;;;4974615;28;20240;-72
2023/10/04 06:55:24;;;;;;;14.10;4.90;;;13.00;99.90;;;;;;4974304;28;20716;-71
2023/10/04 06:57:50;;;;;;;14.73;4.80;;;13.40;99.90;;;;;;4974300;28;20661;-71
2023/10/04 07:00:18;;;;;;;7.17;3.60;;;13.80;99.90;;;;;;4972904;28;20201;-72
2023/10/04 07:02:47;;;;;;;11.23;4.47;;;14.10;99.90;;;;;;4972194;28;20541;-72
2023/10/04 07:05:15;;;;;;;12.20;4.20;;;14.30;99.90;;;;;;4974060;28;20192;-72
2023/10/04 07:07:43;;;;;;;13.50;3.73;;;14.70;99.90;;;;;;4973892;28;20316;-72
2023/10/04 07:10:09;;;;;;;12.93;4.53;;;15.00;99.90;;;;;;4973266;28;20263;-72
2023/10/04 07:12:35;;;;;;;14.23;4.50;;;15.30;99.90;;;;;;4974607;28;20273;-72
2023/10/04 07:15:01;;;;;;;18.47;3.80;;;15.70;99.90;;;;;;4973447;28;20269;-72
2023/10/04 07:17:30;;;;;;;8.53;3.63;;;16.00;99.90;;;;;;4974167;28;20243;-72
2023/10/04 07:19:58;;;;;;;8.63;3.57;;;16.40;99.90;;;;;;4974440;28;20192;-72
2023/10/04 07:22:29;;;;;;;7.90;3.07;;;16.40;99.90;;;;;;4974219;28;20603;-72
2023/10/04 07:24:58;;;;;;;13.87;4.30;;;16.50;99.90;;;;;;4974180;28;20162;-71
2023/10/04 07:27:24;;;;;;;9.00;3.30;;;16.80;99.90;;;;;;4974620;28;20184;-72
2023/10/04 07:29:53;;;;;;;7.13;3.70;;;16.90;99.90;;;;;;4973935;28;20730;-71
2023/10/04 07:32:20;;;;;;;6.37;3.13;;;17.10;99.90;;;;;;4973900;28;20189;-75
2023/10/04 07:34:47;;;;;;;5.40;4.50;;;17.20;99.90;;;;;;4974312;28;20215;-73
2023/10/04 07:37:12;;;;;;;8.83;4.10;;;17.40;99.90;;;;;;4974278;28;20677;-73
2023/10/04 07:39:38;;;;;;;8.10;3.43;;;17.40;99.90;;;;;;4974253;28;20217;-72
2023/10/04 07:42:04;;;;;;;7.73;3.53;;;17.50;99.90;;;;;;4973370;28;20256;-71
2023/10/04 07:44:30;;;;;;;11.50;4.23;;;17.80;99.90;;;;;;4974046;28;20182;-72
2023/10/04 07:47:02;;;;;;;14.70;4.30;;;17.80;99.90;;;;;;4973729;28;20189;-72
2023/10/04 07:49:29;;;;;;;9.03;3.70;;;18.00;99.90;;;;;;4972981;28;20681;-73
2023/10/04 07:51:56;;;;;;;7.73;3.97;;;18.10;99.90;;;;;;4973254;28;20256;-72
2023/10/04 07:54:22;;;;;;;6.30;3.78;;;18.40;99.90;;;;;;4973952;28;20185;-73
2023/10/04 07:56:49;;;;;;;9.20;4.10;;;18.70;99.90;;;;;;4973740;28;20204;-72
2023/10/04 07:59:17;;;;;;;10.07;4.43;;;18.90;99.90;;;;;;4972497;28;20224;-73
2023/10/04 08:01:43;;;;;;;8.95;4.00;;;18.90;99.90;;;;;;4973171;28;20649;-72
2023/10/04 08:04:08;;;;;;;12.23;3.58;;;19.20;99.90;;;;;;4973767;28;20176;-72
2023/10/04 08:06:39;;;;;;;8.15;3.30;;;19.50;99.90;;;;;;4973515;28;20198;-72
2023/10/04 08:09:05;;;;;;;10.53;4.13;;;19.50;99.90;;;;;;4972505;28;20467;-73
2023/10/04 08:11:34;;;;;;;7.13;3.72;;;19.30;99.90;;;;;;4973168;28;20203;-73
2023/10/04 08:14:01;;;;;;;10.85;3.67;;;19.40;99.90;;;;;;4972980;28;20224;-73
2023/10/04 08:16:30;;;;;;;7.15;4.30;;;19.40;99.90;;;;;;4973016;28;20165;-73
2023/10/04 08:18:56;;;;;;;8.32;4.07;;;19.70;99.90;;;;;;4973259;28;20597;-73
2023/10/04 08:21:25;;;;;;;6.38;3.67;;;20.10;99.90;;;;;;4973405;28;20228;-73
2023/10/04 08:23:50;;;;;;;9.50;3.72;;;20.00;99.90;;;;;;4974358;28;20252;-72
2023/10/04 08:26:17;;;;;;;8.05;3.80;;;19.90;99.90;;;;;;4973779;28;20737;-73
2023/10/04 08:28:43;;;;;;;8.07;3.38;;;20.10;99.90;;;;;;4972826;28;20197;-73
2023/10/04 08:31:09;;;;;;;9.50;3.72;;;20.40;99.90;;;;;;4973149;28;20193;-74
2023/10/04 08:33:35;;;;;;;11.65;4.00;;;20.70;99.90;;;;;;4973306;28;20225;-72
2023/10/04 08:36:08;;;;;;;11.65;4.35;;;21.10;99.90;;;;;;4972489;28;20169;-73
2023/10/04 08:38:34;;;;;;;8.98;3.80;;;21.00;99.90;;;;;;4972949;28;20576;-72
2023/10/04 08:41:01;;;;;;;8.35;3.60;;;21.20;99.90;;;;;;4972887;28;20208;-72
2023/10/04 08:43:27;;;;;;;11.70;3.95;;;21.60;99.90;;;;;;4972875;28;20204;-72
2023/10/04 08:45:56;;;;;;;7.22;3.83;;;22.00;99.90;;;;;;4972730;28;20197;-71
2023/10/04 08:48:25;;;;;;;9.20;3.50;;;22.10;99.90;;;;;;4986828;28;20254;-71
2023/10/04 08:51:23;;;;;;;7.93;3.47;;;21.70;99.90;;;;;;4978765;28;20435;-71
2023/10/04 08:53:55;;;;;;;6.45;3.85;;;21.50;99.90;;;;;;4949598;28;20213;-71
2023/10/04 08:56:24;;;;;;;10.23;5.53;;;21.40;99.90;;;;;;4953177;28;20212;-71
2023/10/04 08:58:50;;;;;;;9.32;3.95;;;21.40;99.90;;;;;;4953624;28;20173;-72
2023/10/04 09:01:20;;;;;;;8.18;3.45;;;21.20;99.90;;;;;;4953375;28;20285;-72
2023/10/04 09:03:47;;;;;;;9.13;3.60;;;21.20;99.90;;;;;;4953183;28;20166;-71
2023/10/04 09:06:17;;;;;;;10.52;3.70;;;21.40;99.90;;;;;;4953087;28;20186;-71
2023/10/04 09:08:46;;;;;;;8.77;3.78;;;21.40;99.90;;;;;;4953313;28;20174;-71
2023/10/04 09:11:12;;;;;;;5.28;3.20;;;21.30;99.90;;;;;;4953266;28;20684;-71
2023/10/04 09:13:47;;;;;;;11.02;3.58;;;20.80;99.90;;;;;;4953190;28;20182;-71
2023/10/04 09:16:29;;;;;;;9.70;4.00;;;20.50;99.90;;;;;;4952741;28;20173;-71
2023/10/04 09:19:12;;;;;;;10.63;4.00;;;20.10;99.90;;;;;;4953052;28;20213;-70
2023/10/04 09:21:38;;;;;;;33.00;6.15;;;19.90;99.90;;;;;;4952865;28;20515;-71
2023/10/04 09:24:14;;;;;;;9.75;3.78;;;19.90;99.90;;;;;;4953267;28;20173;-72
2023/10/04 09:27:01;;;;;;;12.07;3.33;;;19.90;99.90;;;;;;4953162;28;20220;-70
2023/10/04 09:29:33;;;;;;;7.35;3.40;;;19.80;99.90;;;;;;4953252;28;20576;-73
2023/10/04 09:32:00;;;;;;;6.40;3.30;;;19.90;99.90;;;;;;4952804;28;20178;-73
2023/10/04 09:34:28;;;;;;;9.52;4.10;;;19.80;99.90;;;;;;4953185;28;20214;-71
2023/10/04 09:36:54;;;;;;;9.23;3.75;;;19.80;99.90;;;;;;4951521;28;20206;-72
2023/10/04 09:39:24;;;;;;;7.03;3.45;;;19.90;99.90;;;;;;4953066;28;20569;-72
2023/10/04 09:41:51;;;;;;;10.00;4.00;;;19.80;99.90;;;;;;4955457;28;20454;-70
2023/10/04 09:44:23;;;;;;;5.03;3.10;;;19.60;99.90;;;;;;4956846;28;20253;-71
2023/10/04 09:46:54;;;;;;;6.40;3.57;;;19.30;99.90;;;;;;4956780;28;20653;-72
2023/10/04 09:49:25;;;;;;;8.90;4.07;;;19.20;99.90;;;;;;4957011;28;20194;-71
2023/10/04 09:51:53;;;;;;;11.45;3.88;;;19.20;99.90;;;;;;4956569;28;20202;-72
2023/10/04 09:54:19;;;;;;;9.30;3.60;;;19.40;99.90;;;;;;4956452;28;20178;-72
2023/10/04 09:56:49;;;;;;;7.10;3.80;;;19.30;99.90;;;;;;4956667;28;20220;-72
2023/10/04 09:59:19;;;;;;;9.37;4.40;;;19.20;99.90;;;;;;4956869;28;20257;-73
2023/10/04 10:01:48;;;;;;;8.13;3.87;;;19.10;99.90;;;;;;4956546;28;20574;-71
2023/10/04 10:04:17;;;;;;;9.30;3.63;;;19.10;99.90;;;;;;4970370;28;20178;-71
2023/10/04 10:07:06;;;;;;;13.63;4.03;;;19.10;99.90;;;;;;4976004;28;20186;-72
2023/10/04 10:09:34;;;;;;;13.07;3.40;;;19.20;99.90;;;;;;4976036;28;20206;-73
2023/10/04 10:12:00;;;;;;;7.17;3.50;;;19.40;99.90;;;;;;4975655;28;20177;-73
2023/10/04 10:14:27;;;;;;;8.97;4.00;;;19.50;99.90;;;;;;4975508;28;20256;-72
2023/10/04 10:16:55;;;;;;;11.77;4.50;;;19.40;99.90;;;;;;4975384;28;20197;-73
2023/10/04 10:19:23;;;;;;;8.33;3.50;;;19.10;99.90;;;;;;4975418;28;20558;-74
2023/10/04 10:22:15;;;;;;;7.30;3.53;;;19.10;99.90;;;;;;4972556;28;20182;-74
2023/10/04 10:24:48;;;;;;;9.43;4.03;;;19.10;99.90;;;;;;4975672;28;20165;-73
2023/10/04 10:27:18;;;;;;;7.73;3.47;;;19.20;99.90;;;;;;4975694;28;20173;-73
2023/10/04 10:29:45;;;;;;;6.60;3.63;;;19.30;99.90;;;;;;4975225;28;20198;-71
2023/10/04 10:32:15;;;;;;;7.57;3.60;;;19.40;99.90;;;;;;4973495;28;20184;-73
2023/10/04 10:34:42;;;;;;;6.88;3.97;;;19.60;99.90;;;;;;4974539;28;20577;-73
2023/10/04 10:37:22;;;;;;;7.85;3.47;;;20.00;99.90;;;;;;4975390;28;20284;-73
2023/10/04 10:39:50;;;;;;;6.93;4.03;;;20.40;99.90;;;;;;4975258;28;20208;-72
2023/10/04 10:42:18;;;;;;;10.52;3.90;;;20.50;99.90;;;;;;4975050;28;20173;-73
2023/10/04 10:44:44;;;;;;;7.13;4.03;;;20.60;99.90;;;;;;4974911;28;20170;-72
2023/10/04 10:47:25;;;;;;;8.82;4.20;;;20.60;99.90;;;;;;4974990;28;20197;-73
2023/10/04 10:49:59;;;;;;;9.30;4.13;;;20.50;99.90;;;;;;4970167;28;20288;-73
2023/10/04 10:52:25;;;;;;;6.53;3.67;;;20.40;99.90;;;;;;4955254;28;20658;-74
2023/10/04 10:54:52;;;;;;;9.70;3.63;;;20.40;99.90;;;;;;4955951;28;20547;-73
2023/10/04 10:57:28;;;;;;;8.77;4.07;;;20.20;99.90;;;;;;4954345;29;20685;-73
2023/10/04 10:59:58;;;;;;;6.83;4.17;;;20.20;99.90;;;;;;4954316;28;20190;-73
2023/10/04 11:02:26;;;;;;;7.68;4.28;;;20.20;99.90;;;;;;4958400;28;20235;-72
2023/10/04 11:04:52;;;;;;;10.90;4.22;;;20.10;99.90;;;;;;4973804;28;20233;-72
2023/10/04 11:07:22;;;;;;;8.13;4.28;;;20.20;99.90;;;;;;4974739;28;20170;-73
2023/10/04 11:09:50;;;;;;;7.70;4.45;;;20.30;99.90;;;;;;4974708;28;20601;-72
2023/10/04 11:12:21;;;;;;;9.43;4.35;;;20.50;99.90;;;;;;4974381;28;20467;-72
2023/10/04 11:14:47;;;;;;;7.25;4.25;;;20.50;99.90;;;;;;4974779;28;20174;-73
2023/10/04 11:17:14;;;;;;;11.73;4.50;;;20.30;99.90;;;;;;4974043;28;20201;-73
2023/10/04 11:19:41;;;;;;;22.00;4.97;;;19.90;99.90;;;;;;4974633;28;20248;-73
2023/10/04 11:22:08;;;;;;;9.13;4.13;;;19.70;99.90;;;;;;4974427;28;20181;-73
2023/10/04 11:24:35;;;;;;;6.43;4.13;;;19.50;99.90;;;;;;4974438;28;20665;-74
2023/10/04 11:27:01;;;;;;;9.47;4.10;;;19.40;99.90;;;;;;4973959;28;20546;-73
2023/10/04 11:29:29;;;;;;;8.77;4.60;;;19.30;99.90;;;;;;4974151;28;20244;-73
2023/10/04 11:31:56;;;;;;;7.67;4.00;;;19.10;99.90;;;;;;4974154;28;20260;-73
2023/10/04 11:34:22;;;;;;;6.33;4.30;;;19.10;99.90;;;;;;4974388;28;20260;-74
2023/10/04 11:36:47;;;;;;;9.13;5.07;;;19.00;99.90;;;;;;4974173;28;20296;-72
2023/10/04 11:39:18;;;;;;;6.17;4.10;;;19.00;99.90;;;;;;4974351;28;20657;-75
2023/10/04 11:41:50;;;;;;;8.13;3.80;;;19.00;99.90;;;;;;4973517;28;20606;-73
2023/10/04 11:44:18;;;;;;;5.53;3.70;;;19.00;99.90;;;;;;4973843;28;20173;-73
2023/10/04 11:47:03;;;;;;;9.63;4.63;;;19.10;99.90;;;;;;4973080;28;20189;-73
2023/10/04 11:49:33;;;;;;;7.33;4.70;;;19.00;99.90;;;;;;4973964;28;20197;-72
2023/10/04 11:52:04;;;;;;;8.47;3.73;;;19.10;99.90;;;;;;4973831;28;20181;-76
2023/10/04 11:54:40;;;;;;;10.63;4.67;;;19.10;99.90;;;;;;4974094;28;20607;-73
2023/10/04 11:57:07;;;;;;;7.17;4.57;;;19.10;99.90;;;;;;4974036;28;20516;-73
2023/10/04 11:59:33;;;;;;;7.23;4.20;;;19.00;99.90;;;;;;4974169;28;20197;-72
2023/10/04 12:02:00;;;;;;;10.53;4.07;;;19.10;99.90;;;;;;4973682;28;20216;-71
2023/10/04 12:04:27;;;;;;;7.63;4.37;;;19.00;99.90;;;;;;4971495;28;20177;-73
2023/10/04 12:07:02;;;;;;;9.77;5.17;;;19.00;99.90;;;;;;4973845;28;20182;-73
2023/10/04 12:09:30;;;;;;;8.73;4.40;;;18.90;99.90;;;;;;4973763;28;20189;-73
2023/10/04 12:11:57;;;;;;;8.30;5.37;;;18.80;99.90;;;;;;4973227;28;20169;-72
2023/10/04 12:14:23;;;;;;;9.47;4.97;;;18.90;99.90;;;;;;4973360;28;20212;-72
2023/10/04 12:16:49;;;;;;;12.97;5.07;;;18.90;99.90;;;;;;4973498;28;20233;-71
2023/10/04 12:19:15;;;;;;;11.23;5.07;;;18.90;99.90;;;;;;4973817;28;20173;-72
2023/10/04 12:21:41;;;;;;;12.47;5.27;;;18.80;99.90;;;;;;4973347;28;20170;-71
2023/10/04 12:24:09;;;;;;;10.20;5.07;;;18.80;99.90;;;;;;4973495;28;20169;-71
2023/10/04 12:26:35;;;;;;;8.27;4.77;;;19.00;99.90;;;;;;4973509;28;20165;-72
2023/10/04 12:29:02;;;;;;;13.37;6.00;;;19.10;99.90;;;;;;4973175;28;20713;-72
2023/10/04 12:31:28;;;;;;;10.70;5.10;;;19.30;99.90;;;;;;4973607;28;20165;-72
2023/10/04 12:33:55;;;;;;;8.10;5.27;;;19.30;99.90;;;;;;4973228;28;20169;-73
2023/10/04 12:36:22;;;;;;;11.97;5.87;;;19.30;99.90;;;;;;4971711;28;20715;-71
2023/10/04 12:38:50;;;;;;;9.73;4.53;;;19.30;99.90;;;;;;4973065;28;20178;-73
2023/10/04 12:41:16;;;;;;;8.83;4.80;;;19.30;99.90;;;;;;4973010;28;20201;-74
2023/10/04 12:43:42;;;;;;;11.70;5.30;;;19.40;99.90;;;;;;4972600;28;20284;-72
2023/10/04 12:46:07;;;;;;;10.87;4.83;;;19.40;99.90;;;;;;4972748;28;20182;-72
2023/10/04 12:48:33;;;;;;;9.60;4.80;;;19.40;99.90;;;;;;4971741;28;20232;-71
2023/10/04 12:50:58;;;;;;;14.27;5.27;;;19.50;99.90;;;;;;4972670;28;20205;-72
2023/10/04 12:53:25;;;;;;;12.93;5.53;;;19.60;99.90;;;;;;4972798;28;20188;-73